createdAt,value
2022-10-19T00:04:34.612Z,6.80
2022-10-19T00:19:36.037Z,4.30
2022-10-19T00:34:36.147Z,4.40
2022-10-19T00:49:36.260Z,2.80
2022-10-19T01:04:36.935Z,1.80
2022-10-19T01:19:38.028Z,1.40
2022-10-19T01:34:39.150Z,1.20
2022-10-19T01:49:41.021Z,1.30
2022-10-19T02:04:42.927Z,1.60
2022-10-19T02:19:44.240Z,1.40
2022-10-19T02:34:46.125Z,1.30
2022-10-19T02:49:46.701Z,1.90
2022-10-19T03:19:49.214Z,1.10
2022-10-19T03:34:50.398Z,1.10
2022-10-19T03:49:51.023Z,1.30
2022-10-19T04:04:52.437Z,1.20
2022-10-19T04:19:54.339Z,1.10
2022-10-19T04:34:58.545Z,1.20
2022-10-19T04:50:00.370Z,1.50
2022-10-19T05:05:01.514Z,1.40
2022-10-19T05:20:03.894Z,1.10
2022-10-19T05:35:04.991Z,1.20
2022-10-19T05:50:06.361Z,1.40
2022-10-19T06:05:06.697Z,1.60
2022-10-19T06:20:06.838Z,1.30
2022-10-19T06:35:06.995Z,1.40
2022-10-19T06:50:07.123Z,1.60
2022-10-19T07:05:07.815Z,1.60
2022-10-19T07:20:08.429Z,1.60
2022-10-19T07:35:08.515Z,1.50
2022-10-19T07:50:08.596Z,2.50
2022-10-19T08:05:11.607Z,5.00
2022-10-19T08:20:13.546Z,1.40
2022-10-19T08:35:14.127Z,5.30
2022-10-19T08:50:16.043Z,1.20
2022-10-19T09:05:16.620Z,1.30
2022-10-19T09:20:18.017Z,1.20
2022-10-19T09:35:18.071Z,1.20
2022-10-19T09:50:19.964Z,1.30
2022-10-19T10:05:20.763Z,4.60
2022-10-19T10:20:21.414Z,0.90
2022-10-19T10:35:23.794Z,1.50
2022-10-19T10:50:24.324Z,1.60
2022-10-19T11:05:24.550Z,0.60
2022-10-19T11:20:24.525Z,0.70
2022-10-19T11:35:24.635Z,0.70
2022-10-19T11:50:27.054Z,0.60
2022-10-19T12:05:29.848Z,0.70
2022-10-19T12:20:29.943Z,0.80
2022-10-19T12:35:31.333Z,1.30
2022-10-19T12:50:35.030Z,0.90
2022-10-19T13:05:37.822Z,0.70
2022-10-19T13:35:40.151Z,1.00
2022-10-19T13:50:42.046Z,0.90
2022-10-19T14:05:42.067Z,0.70
2022-10-19T14:20:43.869Z,0.70
2022-10-19T14:35:43.997Z,0.90
2022-10-19T14:50:45.891Z,0.90
2022-10-19T15:05:47.309Z,1.20
2022-10-19T15:20:55.144Z,0.90
2022-10-19T15:35:54.863Z,1.10
2022-10-19T15:50:55.027Z,1.40
2022-10-19T16:05:56.410Z,2.20
2022-10-19T16:20:58.229Z,3.20
2022-10-19T16:35:57.858Z,4.50
2022-10-19T16:50:58.445Z,4.10
2022-10-19T17:05:58.087Z,3.80
2022-10-19T17:20:58.187Z,4.10
2022-10-19T17:35:58.299Z,8.30
2022-10-19T17:50:58.486Z,12.00
2022-10-19T18:05:59.020Z,12.00
2022-10-19T18:20:58.633Z,15.20
2022-10-19T18:36:00.536Z,11.90
2022-10-19T18:51:04.788Z,13.10
2022-10-19T19:06:05.536Z,13.50
2022-10-19T19:21:07.538Z,18.10
2022-10-19T19:36:08.872Z,21.90
2022-10-19T19:51:10.278Z,17.30
2022-10-19T20:06:11.805Z,17.80
2022-10-19T20:21:12.997Z,17.50
2022-10-19T20:36:13.306Z,18.60
2022-10-19T20:51:13.275Z,18.60
2022-10-19T21:06:14.321Z,16.60
2022-10-19T21:21:14.555Z,15.80
2022-10-19T21:36:14.695Z,13.90
2022-10-19T21:51:15.362Z,14.30
2022-10-19T22:06:16.749Z,13.90
2022-10-19T22:21:16.897Z,11.90
2022-10-19T22:36:18.745Z,12.10
2022-10-19T22:51:20.117Z,12.40
2022-10-19T23:06:20.290Z,12.60
2022-10-19T23:21:22.597Z,13.20
2022-10-19T23:36:23.964Z,13.90
2022-10-19T23:51:24.618Z,12.10
